sensor_id;sensor_type;location;lat;lon;timestamp;temperature;humidity
11650;DHT22;5881;48.522;7.682;2023-05-27T00:01:49;16.10;1.00
11650;DHT22;5881;48.522;7.682;2023-05-27T00:04:14;16.00;1.00
11650;DHT22;5881;48.522;7.682;2023-05-27T00:06:40;16.00;1.00
11650;DHT22;5881;48.522;7.682;2023-05-27T00:09:06;16.00;1.00
11650;DHT22;5881;48.522;7.682;2023-05-27T00:11:31;15.90;1.00
11650;DHT22;5881;48.522;7.682;2023-05-27T00:13:57;15.90;1.00
11650;DHT22;5881;48.522;7.682;2023-05-27T00:16:23;15.90;1.00
11650;DHT22;5881;48.522;7.682;2023-05-27T00:18:48;15.80;1.00
11650;DHT22;5881;48.522;7.682;2023-05-27T00:21:14;15.80;1.00
11650;DHT22;5881;48.522;7.682;2023-05-27T00:23:44;15.80;1.00
11650;DHT22;5881;48.522;7.682;2023-05-27T00:26:10;15.80;1.00
11650;DHT22;5881;48.522;7.682;2023-05-27T00:28:35;15.70;1.00
11650;DHT22;5881;48.522;7.682;2023-05-27T00:31:01;15.70;1.00
11650;DHT22;5881;48.522;7.682;2023-05-27T00:33:27;15.70;1.00
11650;DHT22;5881;48.522;7.682;2023-05-27T00:35:53;15.70;1.00
11650;DHT22;5881;48.522;7.682;2023-05-27T00:38:18;15.70;1.00
11650;DHT22;5881;48.522;7.682;2023-05-27T00:40:44;15.70;1.00
11650;DHT22;5881;48.522;7.682;2023-05-27T00:43:11;15.70;1.00
11650;DHT22;5881;48.522;7.682;2023-05-27T00:45:36;15.70;1.00
11650;DHT22;5881;48.522;7.682;2023-05-27T00:48:02;15.70;1.00
11650;DHT22;5881;48.522;7.682;2023-05-27T00:50:28;15.60;1.00
11650;DHT22;5881;48.522;7.682;2023-05-27T00:52:55;15.50;1.00
11650;DHT22;5881;48.522;7.682;2023-05-27T00:55:22;15.50;1.00
11650;DHT22;5881;48.522;7.682;2023-05-27T00:57:47;15.50;1.00
11650;DHT22;5881;48.522;7.682;2023-05-27T01:00:13;15.50;1.00
11650;DHT22;5881;48.522;7.682;2023-05-27T01:02:39;15.40;1.00
11650;DHT22;5881;48.522;7.682;2023-05-27T01:05:13;15.40;1.00
11650;DHT22;5881;48.522;7.682;2023-05-27T01:08:07;15.40;1.00
11650;DHT22;5881;48.522;7.682;2023-05-27T01:14:03;15.30;1.00
11650;DHT22;5881;48.522;7.682;2023-05-27T01:16:11;15.30;1.00
11650;DHT22;5881;48.522;7.682;2023-05-27T01:18:37;15.30;1.00
11650;DHT22;5881;48.522;7.682;2023-05-27T01:21:07;15.30;1.00
11650;DHT22;5881;48.522;7.682;2023-05-27T01:23:35;15.30;1.00
11650;DHT22;5881;48.522;7.682;2023-05-27T01:26:04;15.20;1.00
11650;DHT22;5881;48.522;7.682;2023-05-27T01:28:31;15.10;1.00
11650;DHT22;5881;48.522;7.682;2023-05-27T01:33:35;15.00;1.00
11650;DHT22;5881;48.522;7.682;2023-05-27T01:36:10;15.00;1.00
11650;DHT22;5881;48.522;7.682;2023-05-27T01:38:40;15.00;1.00
11650;DHT22;5881;48.522;7.682;2023-05-27T01:41:08;15.00;1.00
11650;DHT22;5881;48.522;7.682;2023-05-27T01:43:34;15.00;1.00
11650;DHT22;5881;48.522;7.682;2023-05-27T01:46:00;15.00;1.00
11650;DHT22;5881;48.522;7.682;2023-05-27T01:48:26;15.00;1.00
11650;DHT22;5881;48.522;7.682;2023-05-27T01:50:51;14.90;1.00
11650;DHT22;5881;48.522;7.682;2023-05-27T01:53:17;14.90;1.00
11650;DHT22;5881;48.522;7.682;2023-05-27T01:55:43;14.80;1.00
11650;DHT22;5881;48.522;7.682;2023-05-27T01:58:08;14.80;1.00
11650;DHT22;5881;48.522;7.682;2023-05-27T02:00:34;14.80;1.00
11650;DHT22;5881;48.522;7.682;2023-05-27T02:03:00;14.80;1.00
11650;DHT22;5881;48.522;7.682;2023-05-27T02:05:25;14.70;1.00
11650;DHT22;5881;48.522;7.682;2023-05-27T02:07:51;14.70;1.00
11650;DHT22;5881;48.522;7.682;2023-05-27T02:10:17;14.60;1.00
11650;DHT22;5881;48.522;7.682;2023-05-27T02:12:42;14.60;1.00
11650;DHT22;5881;48.522;7.682;2023-05-27T02:15:08;14.50;1.00
11650;DHT22;5881;48.522;7.682;2023-05-27T02:17:34;14.50;1.00
11650;DHT22;5881;48.522;7.682;2023-05-27T02:19:59;14.50;1.00
11650;DHT22;5881;48.522;7.682;2023-05-27T02:22:25;14.40;1.00
11650;DHT22;5881;48.522;7.682;2023-05-27T02:24:51;14.40;1.00
11650;DHT22;5881;48.522;7.682;2023-05-27T02:27:16;14.40;1.00
11650;DHT22;5881;48.522;7.682;2023-05-27T02:29:42;14.40;1.00
11650;DHT22;5881;48.522;7.682;2023-05-27T02:32:07;14.30;1.00
11650;DHT22;5881;48.522;7.682;2023-05-27T02:34:33;14.30;1.00
11650;DHT22;5881;48.522;7.682;2023-05-27T02:37:03;14.20;1.00
11650;DHT22;5881;48.522;7.682;2023-05-27T02:39:29;14.20;1.00
11650;DHT22;5881;48.522;7.682;2023-05-27T02:41:55;14.20;1.00
11650;DHT22;5881;48.522;7.682;2023-05-27T02:44:20;14.20;1.00
11650;DHT22;5881;48.522;7.682;2023-05-27T02:46:46;14.10;1.00
11650;DHT22;5881;48.522;7.682;2023-05-27T02:49:12;14.10;1.00
11650;DHT22;5881;48.522;7.682;2023-05-27T02:51:37;14.10;1.00
11650;DHT22;5881;48.522;7.682;2023-05-27T02:54:03;14.10;1.00
11650;DHT22;5881;48.522;7.682;2023-05-27T02:56:29;14.10;1.00
11650;DHT22;5881;48.522;7.682;2023-05-27T02:58:54;14.10;1.00
11650;DHT22;5881;48.522;7.682;2023-05-27T03:01:20;14.00;1.00
11650;DHT22;5881;48.522;7.682;2023-05-27T03:03:45;14.00;1.00
11650;DHT22;5881;48.522;7.682;2023-05-27T03:06:11;13.90;1.00
11650;DHT22;5881;48.522;7.682;2023-05-27T03:08:37;13.90;1.00
11650;DHT22;5881;48.522;7.682;2023-05-27T03:11:02;13.90;1.00
11650;DHT22;5881;48.522;7.682;2023-05-27T03:13:28;13.90;1.00
11650;DHT22;5881;48.522;7.682;2023-05-27T03:15:54;13.90;1.00
11650;DHT22;5881;48.522;7.682;2023-05-27T03:18:23;13.90;1.00
11650;DHT22;5881;48.522;7.682;2023-05-27T03:20:49;13.80;1.00
11650;DHT22;5881;48.522;7.682;2023-05-27T03:23:15;13.80;1.00
11650;DHT22;5881;48.522;7.682;2023-05-27T03:25:41;13.80;1.00
11650;DHT22;5881;48.522;7.682;2023-05-27T03:28:06;13.80;1.00
11650;DHT22;5881;48.522;7.682;2023-05-27T03:30:32;13.80;1.00
11650;DHT22;5881;48.522;7.682;2023-05-27T03:32:58;13.80;1.00
11650;DHT22;5881;48.522;7.682;2023-05-27T03:35:23;13.80;1.00
11650;DHT22;5881;48.522;7.682;2023-05-27T03:37:49;13.70;1.00
11650;DHT22;5881;48.522;7.682;2023-05-27T03:40:14;13.60;1.00
11650;DHT22;5881;48.522;7.682;2023-05-27T03:42:40;13.70;1.00
11650;DHT22;5881;48.522;7.682;2023-05-27T03:45:06;13.60;1.00
11650;DHT22;5881;48.522;7.682;2023-05-27T03:47:32;13.70;1.00
11650;DHT22;5881;48.522;7.682;2023-05-27T03:50:00;13.70;1.00
11650;DHT22;5881;48.522;7.682;2023-05-27T03:52:25;13.60;1.00
11650;DHT22;5881;48.522;7.682;2023-05-27T03:54:51;13.60;1.00
11650;DHT22;5881;48.522;7.682;2023-05-27T03:57:17;13.70;1.00
11650;DHT22;5881;48.522;7.682;2023-05-27T03:59:42;13.70;1.00
11650;DHT22;5881;48.522;7.682;2023-05-27T04:02:08;13.70;1.00
11650;DHT22;5881;48.522;7.682;2023-05-27T04:04:34;13.60;1.00
11650;DHT22;5881;48.522;7.682;2023-05-27T04:06:59;13.70;1.00
11650;DHT22;5881;48.522;7.682;2023-05-27T04:09:26;13.60;1.00
11650;DHT22;5881;48.522;7.682;2023-05-27T04:11:52;13.60;1.00
11650;DHT22;5881;48.522;7.682;2023-05-27T04:14:18;13.70;1.00
11650;DHT22;5881;48.522;7.682;2023-05-27T04:16:43;13.70;1.00
11650;DHT22;5881;48.522;7.682;2023-05-27T04:19:09;13.70;1.00
11650;DHT22;5881;48.522;7.682;2023-05-27T04:21:35;13.70;1.00
11650;DHT22;5881;48.522;7.682;2023-05-27T04:24:02;13.80;1.00
11650;DHT22;5881;48.522;7.682;2023-05-27T04:26:28;13.90;1.00
11650;DHT22;5881;48.522;7.682;2023-05-27T04:28:53;14.00;1.00
11650;DHT22;5881;48.522;7.682;2023-05-27T04:31:19;13.90;1.00
11650;DHT22;5881;48.522;7.682;2023-05-27T04:33:45;14.00;1.00
11650;DHT22;5881;48.522;7.682;2023-05-27T04:36:11;14.00;1.00
11650;DHT22;5881;48.522;7.682;2023-05-27T04:38:37;14.10;1.00
11650;DHT22;5881;48.522;7.682;2023-05-27T04:41:03;14.10;1.00
11650;DHT22;5881;48.522;7.682;2023-05-27T04:43:29;14.20;1.00
11650;DHT22;5881;48.522;7.682;2023-05-27T04:45:57;14.30;1.00
11650;DHT22;5881;48.522;7.682;2023-05-27T04:48:24;14.50;1.00
11650;DHT22;5881;48.522;7.682;2023-05-27T04:50:50;14.70;1.00
11650;DHT22;5881;48.522;7.682;2023-05-27T04:53:19;15.00;1.00
11650;DHT22;5881;48.522;7.682;2023-05-27T04:55:44;15.60;1.00
11650;DHT22;5881;48.522;7.682;2023-05-27T04:58:11;15.90;1.00
11650;DHT22;5881;48.522;7.682;2023-05-27T05:00:36;16.50;1.00
11650;DHT22;5881;48.522;7.682;2023-05-27T05:03:03;16.60;1.00
11650;DHT22;5881;48.522;7.682;2023-05-27T05:05:29;17.20;1.00
11650;DHT22;5881;48.522;7.682;2023-05-27T05:07:55;17.40;1.00
11650;DHT22;5881;48.522;7.682;2023-05-27T05:10:21;17.40;1.00
11650;DHT22;5881;48.522;7.682;2023-05-27T05:12:46;17.20;1.00
11650;DHT22;5881;48.522;7.682;2023-05-27T05:15:12;17.60;1.00
11650;DHT22;5881;48.522;7.682;2023-05-27T05:17:38;17.60;1.00
11650;DHT22;5881;48.522;7.682;2023-05-27T05:20:03;18.20;1.00
11650;DHT22;5881;48.522;7.682;2023-05-27T05:22:30;18.10;1.00
11650;DHT22;5881;48.522;7.682;2023-05-27T05:24:55;18.10;1.00
11650;DHT22;5881;48.522;7.682;2023-05-27T05:27:21;17.70;1.00
11650;DHT22;5881;48.522;7.682;2023-05-27T05:29:46;17.80;1.00
11650;DHT22;5881;48.522;7.682;2023-05-27T05:32:12;17.80;1.00
11650;DHT22;5881;48.522;7.682;2023-05-27T05:34:38;18.20;1.00
11650;DHT22;5881;48.522;7.682;2023-05-27T05:37:05;17.80;1.00
11650;DHT22;5881;48.522;7.682;2023-05-27T05:39:31;17.40;1.00
11650;DHT22;5881;48.522;7.682;2023-05-27T05:41:57;18.00;1.00
11650;DHT22;5881;48.522;7.682;2023-05-27T05:44:23;17.90;1.00
11650;DHT22;5881;48.522;7.682;2023-05-27T05:46:49;18.70;1.00
11650;DHT22;5881;48.522;7.682;2023-05-27T05:49:15;19.00;1.00
11650;DHT22;5881;48.522;7.682;2023-05-27T05:51:40;19.70;1.00
11650;DHT22;5881;48.522;7.682;2023-05-27T05:54:06;19.30;1.00
11650;DHT22;5881;48.522;7.682;2023-05-27T05:56:32;19.60;1.00
11650;DHT22;5881;48.522;7.682;2023-05-27T05:58:58;19.80;1.00
11650;DHT22;5881;48.522;7.682;2023-05-27T06:01:25;20.00;1.00
11650;DHT22;5881;48.522;7.682;2023-05-27T06:03:55;20.30;1.00
11650;DHT22;5881;48.522;7.682;2023-05-27T06:06:21;20.90;1.00
11650;DHT22;5881;48.522;7.682;2023-05-27T06:08:47;21.30;1.00
11650;DHT22;5881;48.522;7.682;2023-05-27T06:11:13;20.60;1.00
11650;DHT22;5881;48.522;7.682;2023-05-27T06:13:39;21.30;1.00
11650;DHT22;5881;48.522;7.682;2023-05-27T06:16:05;20.80;1.00
11650;DHT22;5881;48.522;7.682;2023-05-27T06:18:31;21.10;1.00
11650;DHT22;5881;48.522;7.682;2023-05-27T06:20:56;21.20;1.00
11650;DHT22;5881;48.522;7.682;2023-05-27T06:23:22;21.40;1.00
11650;DHT22;5881;48.522;7.682;2023-05-27T06:25:47;21.70;1.00
11650;DHT22;5881;48.522;7.682;2023-05-27T06:28:13;21.50;1.00
11650;DHT22;5881;48.522;7.682;2023-05-27T06:30:38;22.20;1.00
11650;DHT22;5881;48.522;7.682;2023-05-27T06:33:05;22.30;1.00
11650;DHT22;5881;48.522;7.682;2023-05-27T06:35:30;22.30;1.00
11650;DHT22;5881;48.522;7.682;2023-05-27T06:37:58;22.70;1.00
11650;DHT22;5881;48.522;7.682;2023-05-27T06:40:24;22.60;1.00
11650;DHT22;5881;48.522;7.682;2023-05-27T06:42:50;22.60;1.00
11650;DHT22;5881;48.522;7.682;2023-05-27T06:45:16;22.70;1.00
11650;DHT22;5881;48.522;7.682;2023-05-27T06:47:41;22.80;1.00
11650;DHT22;5881;48.522;7.682;2023-05-27T06:50:07;22.80;1.00
11650;DHT22;5881;48.522;7.682;2023-05-27T06:52:33;22.80;1.00
11650;DHT22;5881;48.522;7.682;2023-05-27T06:54:59;23.30;1.00
11650;DHT22;5881;48.522;7.682;2023-05-27T06:57:24;23.30;1.00
11650;DHT22;5881;48.522;7.682;2023-05-27T06:59:50;23.40;1.00
11650;DHT22;5881;48.522;7.682;2023-05-27T07:02:15;22.90;1.00
11650;DHT22;5881;48.522;7.682;2023-05-27T07:04:41;23.50;1.00
11650;DHT22;5881;48.522;7.682;2023-05-27T07:07:07;22.70;1.00
11650;DHT22;5881;48.522;7.682;2023-05-27T07:09:32;23.40;1.00
11650;DHT22;5881;48.522;7.682;2023-05-27T07:11:59;24.50;1.00
11650;DHT22;5881;48.522;7.682;2023-05-27T07:14:25;24.50;1.00
11650;DHT22;5881;48.522;7.682;2023-05-27T07:16:51;25.10;1.00
11650;DHT22;5881;48.522;7.682;2023-05-27T07:19:17;25.30;1.00
11650;DHT22;5881;48.522;7.682;2023-05-27T07:21:43;25.00;1.00
11650;DHT22;5881;48.522;7.682;2023-05-27T07:24:08;24.20;1.00
11650;DHT22;5881;48.522;7.682;2023-05-27T07:26:34;22.80;1.00
11650;DHT22;5881;48.522;7.682;2023-05-27T07:29:00;23.40;1.00
11650;DHT22;5881;48.522;7.682;2023-05-27T07:31:27;24.60;1.00
11650;DHT22;5881;48.522;7.682;2023-05-27T07:33:53;24.70;1.00
11650;DHT22;5881;48.522;7.682;2023-05-27T07:36:18;24.80;1.00
11650;DHT22;5881;48.522;7.682;2023-05-27T07:38:44;24.10;1.00
11650;DHT22;5881;48.522;7.682;2023-05-27T07:41:10;23.80;1.00
11650;DHT22;5881;48.522;7.682;2023-05-27T07:43:36;24.60;1.00
11650;DHT22;5881;48.522;7.682;2023-05-27T07:46:02;25.10;1.00
11650;DHT22;5881;48.522;7.682;2023-05-27T07:48:28;25.50;1.00
11650;DHT22;5881;48.522;7.682;2023-05-27T07:50:54;25.60;1.00
11650;DHT22;5881;48.522;7.682;2023-05-27T07:53:20;26.20;1.00
11650;DHT22;5881;48.522;7.682;2023-05-27T07:55:46;26.20;1.00
11650;DHT22;5881;48.522;7.682;2023-05-27T07:58:11;25.20;1.00
11650;DHT22;5881;48.522;7.682;2023-05-27T08:00:37;25.90;1.00
11650;DHT22;5881;48.522;7.682;2023-05-27T08:03:03;26.60;1.00
11650;DHT22;5881;48.522;7.682;2023-05-27T08:05:28;26.70;1.00
11650;DHT22;5881;48.522;7.682;2023-05-27T08:07:54;26.30;1.00
11650;DHT22;5881;48.522;7.682;2023-05-27T08:10:20;26.10;1.00
11650;DHT22;5881;48.522;7.682;2023-05-27T08:12:45;25.80;1.00
11650;DHT22;5881;48.522;7.682;2023-05-27T08:15:11;26.20;1.00
11650;DHT22;5881;48.522;7.682;2023-05-27T08:17:36;26.10;1.00
11650;DHT22;5881;48.522;7.682;2023-05-27T08:20:02;26.90;1.00
11650;DHT22;5881;48.522;7.682;2023-05-27T08:22:29;26.00;1.00
11650;DHT22;5881;48.522;7.682;2023-05-27T08:24:55;25.80;1.00
11650;DHT22;5881;48.522;7.682;2023-05-27T08:27:20;26.30;1.00
11650;DHT22;5881;48.522;7.682;2023-05-27T08:29:46;27.20;1.00
11650;DHT22;5881;48.522;7.682;2023-05-27T08:32:12;26.90;1.00
11650;DHT22;5881;48.522;7.682;2023-05-27T08:34:38;27.20;1.00
11650;DHT22;5881;48.522;7.682;2023-05-27T08:37:04;27.30;1.00
11650;DHT22;5881;48.522;7.682;2023-05-27T08:39:31;27.10;1.00
11650;DHT22;5881;48.522;7.682;2023-05-27T08:41:57;27.40;1.00
11650;DHT22;5881;48.522;7.682;2023-05-27T08:44:23;26.10;1.00
11650;DHT22;5881;48.522;7.682;2023-05-27T08:46:49;27.00;1.00
11650;DHT22;5881;48.522;7.682;2023-05-27T08:49:16;28.30;1.00
11650;DHT22;5881;48.522;7.682;2023-05-27T08:51:41;28.60;1.00
11650;DHT22;5881;48.522;7.682;2023-05-27T08:54:10;27.60;1.00
11650;DHT22;5881;48.522;7.682;2023-05-27T08:56:36;27.90;1.00
11650;DHT22;5881;48.522;7.682;2023-05-27T08:59:02;28.60;1.00
11650;DHT22;5881;48.522;7.682;2023-05-27T09:01:29;28.40;1.00
11650;DHT22;5881;48.522;7.682;2023-05-27T09:03:56;27.20;1.00
11650;DHT22;5881;48.522;7.682;2023-05-27T09:06:22;28.40;1.00
11650;DHT22;5881;48.522;7.682;2023-05-27T09:08:48;28.30;1.00
11650;DHT22;5881;48.522;7.682;2023-05-27T09:11:26;28.10;1.00
11650;DHT22;5881;48.522;7.682;2023-05-27T09:13:55;27.60;1.00
11650;DHT22;5881;48.522;7.682;2023-05-27T09:16:23;27.70;1.00
11650;DHT22;5881;48.522;7.682;2023-05-27T09:18:49;27.80;1.00
11650;DHT22;5881;48.522;7.682;2023-05-27T09:21:15;29.00;1.00
11650;DHT22;5881;48.522;7.682;2023-05-27T09:23:41;30.20;1.00
11650;DHT22;5881;48.522;7.682;2023-05-27T09:26:10;29.20;1.00
11650;DHT22;5881;48.522;7.682;2023-05-27T09:28:37;29.20;1.00
11650;DHT22;5881;48.522;7.682;2023-05-27T09:31:07;29.40;1.00
11650;DHT22;5881;48.522;7.682;2023-05-27T09:33:35;28.60;1.00
11650;DHT22;5881;48.522;7.682;2023-05-27T09:36:05;28.20;1.00
11650;DHT22;5881;48.522;7.682;2023-05-27T09:38:31;29.50;1.00
11650;DHT22;5881;48.522;7.682;2023-05-27T09:40:58;29.10;1.00
11650;DHT22;5881;48.522;7.682;2023-05-27T09:43:24;29.20;1.00
11650;DHT22;5881;48.522;7.682;2023-05-27T09:45:55;29.50;1.00
11650;DHT22;5881;48.522;7.682;2023-05-27T09:48:22;28.60;1.00
11650;DHT22;5881;48.522;7.682;2023-05-27T09:50:49;29.70;1.00
11650;DHT22;5881;48.522;7.682;2023-05-27T09:53:16;29.40;1.00
11650;DHT22;5881;48.522;7.682;2023-05-27T09:55:43;29.00;1.00
11650;DHT22;5881;48.522;7.682;2023-05-27T09:58:09;29.30;1.00
11650;DHT22;5881;48.522;7.682;2023-05-27T10:00:37;29.60;1.00
11650;DHT22;5881;48.522;7.682;2023-05-27T10:03:05;29.30;1.00
11650;DHT22;5881;48.522;7.682;2023-05-27T10:05:33;29.50;1.00
11650;DHT22;5881;48.522;7.682;2023-05-27T10:07:59;29.10;1.00
11650;DHT22;5881;48.522;7.682;2023-05-27T10:10:25;28.90;1.00
11650;DHT22;5881;48.522;7.682;2023-05-27T10:12:51;28.70;1.00
11650;DHT22;5881;48.522;7.682;2023-05-27T10:15:28;28.90;1.00
11650;DHT22;5881;48.522;7.682;2023-05-27T10:17:59;28.30;1.00
11650;DHT22;5881;48.522;7.682;2023-05-27T10:20:32;29.00;1.00
11650;DHT22;5881;48.522;7.682;2023-05-27T10:23:19;29.40;1.00
11650;DHT22;5881;48.522;7.682;2023-05-27T10:25:47;28.10;1.00
11650;DHT22;5881;48.522;7.682;2023-05-27T10:28:33;29.30;1.00
11650;DHT22;5881;48.522;7.682;2023-05-27T10:33:42;29.30;1.00
11650;DHT22;5881;48.522;7.682;2023-05-27T10:38:35;29.60;1.00
11650;DHT22;5881;48.522;7.682;2023-05-27T10:41:02;29.20;1.00
11650;DHT22;5881;48.522;7.682;2023-05-27T10:43:29;29.60;1.00
11650;DHT22;5881;48.522;7.682;2023-05-27T10:46:13;29.90;1.00
11650;DHT22;5881;48.522;7.682;2023-05-27T10:48:39;29.80;1.00
11650;DHT22;5881;48.522;7.682;2023-05-27T10:51:05;28.50;1.00
11650;DHT22;5881;48.522;7.682;2023-05-27T10:53:34;29.10;1.00
11650;DHT22;5881;48.522;7.682;2023-05-27T10:56:00;29.20;1.00
11650;DHT22;5881;48.522;7.682;2023-05-27T10:58:26;29.20;1.00
11650;DHT22;5881;48.522;7.682;2023-05-27T11:00:54;29.20;1.00
11650;DHT22;5881;48.522;7.682;2023-05-27T11:03:27;29.50;1.00
11650;DHT22;5881;48.522;7.682;2023-05-27T11:06:12;29.60;1.00
11650;DHT22;5881;48.522;7.682;2023-05-27T11:08:38;29.40;1.00
11650;DHT22;5881;48.522;7.682;2023-05-27T11:11:12;28.80;1.00
11650;DHT22;5881;48.522;7.682;2023-05-27T11:13:43;29.70;1.00
11650;DHT22;5881;48.522;7.682;2023-05-27T11:16:09;29.20;1.00
11650;DHT22;5881;48.522;7.682;2023-05-27T11:21:07;28.90;1.00
11650;DHT22;5881;48.522;7.682;2023-05-27T11:23:40;29.20;1.00
11650;DHT22;5881;48.522;7.682;2023-05-27T11:26:24;29.90;1.00
11650;DHT22;5881;48.522;7.682;2023-05-27T11:28:56;29.40;1.00
11650;DHT22;5881;48.522;7.682;2023-05-27T11:31:29;29.00;1.00
11650;DHT22;5881;48.522;7.682;2023-05-27T11:33:55;28.50;1.00
11650;DHT22;5881;48.522;7.682;2023-05-27T11:36:21;29.10;1.00
11650;DHT22;5881;48.522;7.682;2023-05-27T11:41:28;27.90;1.00
11650;DHT22;5881;48.522;7.682;2023-05-27T11:44:03;27.60;1.00
11650;DHT22;5881;48.522;7.682;2023-05-27T11:46:36;28.40;1.00
11650;DHT22;5881;48.522;7.682;2023-05-27T11:49:06;27.50;1.00
11650;DHT22;5881;48.522;7.682;2023-05-27T11:51:37;27.10;1.00
11650;DHT22;5881;48.522;7.682;2023-05-27T11:54:03;27.00;1.00
11650;DHT22;5881;48.522;7.682;2023-05-27T11:56:29;26.80;1.00
11650;DHT22;5881;48.522;7.682;2023-05-27T11:58:58;27.40;1.00
11650;DHT22;5881;48.522;7.682;2023-05-27T12:01:24;28.00;1.00
11650;DHT22;5881;48.522;7.682;2023-05-27T12:03:51;27.20;1.00
11650;DHT22;5881;48.522;7.682;2023-05-27T12:06:16;27.30;1.00
11650;DHT22;5881;48.522;7.682;2023-05-27T12:08:42;27.40;1.00
11650;DHT22;5881;48.522;7.682;2023-05-27T12:11:08;26.80;1.00
11650;DHT22;5881;48.522;7.682;2023-05-27T12:13:34;27.30;1.00
11650;DHT22;5881;48.522;7.682;2023-05-27T12:16:00;27.00;1.00
11650;DHT22;5881;48.522;7.682;2023-05-27T12:18:25;27.50;1.00
11650;DHT22;5881;48.522;7.682;2023-05-27T12:20:51;27.50;1.00
11650;DHT22;5881;48.522;7.682;2023-05-27T12:23:17;27.60;1.00
11650;DHT22;5881;48.522;7.682;2023-05-27T12:25:43;27.90;1.00
11650;DHT22;5881;48.522;7.682;2023-05-27T12:28:09;27.20;1.00
11650;DHT22;5881;48.522;7.682;2023-05-27T12:30:36;27.10;1.00
11650;DHT22;5881;48.522;7.682;2023-05-27T12:33:04;26.90;1.00
11650;DHT22;5881;48.522;7.682;2023-05-27T12:35:30;26.90;1.00
11650;DHT22;5881;48.522;7.682;2023-05-27T12:37:56;26.50;1.00
11650;DHT22;5881;48.522;7.682;2023-05-27T12:40:22;27.10;1.00
11650;DHT22;5881;48.522;7.682;2023-05-27T12:42:48;27.60;1.00
11650;DHT22;5881;48.522;7.682;2023-05-27T12:45:14;27.10;1.00
11650;DHT22;5881;48.522;7.682;2023-05-27T12:47:39;27.20;1.00
11650;DHT22;5881;48.522;7.682;2023-05-27T12:50:06;26.80;1.00
11650;DHT22;5881;48.522;7.682;2023-05-27T12:52:32;26.70;1.00
11650;DHT22;5881;48.522;7.682;2023-05-27T12:54:58;27.10;1.00
11650;DHT22;5881;48.522;7.682;2023-05-27T12:57:23;26.40;1.00
11650;DHT22;5881;48.522;7.682;2023-05-27T12:59:49;26.40;1.00
11650;DHT22;5881;48.522;7.682;2023-05-27T13:02:14;26.20;1.00
11650;DHT22;5881;48.522;7.682;2023-05-27T13:04:40;26.20;1.00
11650;DHT22;5881;48.522;7.682;2023-05-27T13:07:09;26.30;1.00
11650;DHT22;5881;48.522;7.682;2023-05-27T13:09:35;26.20;1.00
11650;DHT22;5881;48.522;7.682;2023-05-27T13:12:00;26.30;1.00
11650;DHT22;5881;48.522;7.682;2023-05-27T13:14:27;26.40;1.00
11650;DHT22;5881;48.522;7.682;2023-05-27T13:16:53;26.20;1.00
11650;DHT22;5881;48.522;7.682;2023-05-27T13:19:20;26.10;1.00
11650;DHT22;5881;48.522;7.682;2023-05-27T13:21:45;26.40;1.00
11650;DHT22;5881;48.522;7.682;2023-05-27T13:24:11;26.50;1.00
11650;DHT22;5881;48.522;7.682;2023-05-27T13:26:37;26.50;1.00
11650;DHT22;5881;48.522;7.682;2023-05-27T13:29:03;26.20;1.00
11650;DHT22;5881;48.522;7.682;2023-05-27T13:31:28;26.10;1.00
11650;DHT22;5881;48.522;7.682;2023-05-27T13:33:54;26.30;1.00
11650;DHT22;5881;48.522;7.682;2023-05-27T13:36:20;26.60;1.00
11650;DHT22;5881;48.522;7.682;2023-05-27T13:38:45;26.80;1.00
11650;DHT22;5881;48.522;7.682;2023-05-27T13:41:11;26.60;1.00
11650;DHT22;5881;48.522;7.682;2023-05-27T13:43:36;26.30;1.00
11650;DHT22;5881;48.522;7.682;2023-05-27T13:46:02;26.30;1.00
11650;DHT22;5881;48.522;7.682;2023-05-27T13:48:27;26.20;1.00
11650;DHT22;5881;48.522;7.682;2023-05-27T13:50:53;26.20;1.00
11650;DHT22;5881;48.522;7.682;2023-05-27T13:53:18;26.10;1.00
11650;DHT22;5881;48.522;7.682;2023-05-27T13:55:44;26.00;1.00
11650;DHT22;5881;48.522;7.682;2023-05-27T13:58:10;26.00;1.00
11650;DHT22;5881;48.522;7.682;2023-05-27T14:00:36;26.20;1.00
11650;DHT22;5881;48.522;7.682;2023-05-27T14:03:02;25.90;1.00
11650;DHT22;5881;48.522;7.682;2023-05-27T14:05:28;25.80;1.00
11650;DHT22;5881;48.522;7.682;2023-05-27T14:07:54;25.80;1.00
11650;DHT22;5881;48.522;7.682;2023-05-27T14:10:20;25.90;1.00
11650;DHT22;5881;48.522;7.682;2023-05-27T14:12:45;26.10;1.00
11650;DHT22;5881;48.522;7.682;2023-05-27T14:15:11;26.00;1.00
11650;DHT22;5881;48.522;7.682;2023-05-27T14:17:37;26.30;1.00
11650;DHT22;5881;48.522;7.682;2023-05-27T14:20:04;26.10;1.00
11650;DHT22;5881;48.522;7.682;2023-05-27T14:22:39;26.00;1.00
11650;DHT22;5881;48.522;7.682;2023-05-27T14:25:05;26.20;1.00
11650;DHT22;5881;48.522;7.682;2023-05-27T14:27:31;26.00;1.00
11650;DHT22;5881;48.522;7.682;2023-05-27T14:29:57;25.90;1.00
11650;DHT22;5881;48.522;7.682;2023-05-27T14:32:22;25.80;1.00
11650;DHT22;5881;48.522;7.682;2023-05-27T14:34:48;25.80;1.00
11650;DHT22;5881;48.522;7.682;2023-05-27T14:37:14;25.90;1.00
11650;DHT22;5881;48.522;7.682;2023-05-27T14:39:40;25.70;1.00
11650;DHT22;5881;48.522;7.682;2023-05-27T14:42:05;25.70;1.00
11650;DHT22;5881;48.522;7.682;2023-05-27T14:44:34;25.60;1.00
11650;DHT22;5881;48.522;7.682;2023-05-27T14:47:01;25.90;1.00
11650;DHT22;5881;48.522;7.682;2023-05-27T14:49:26;25.70;1.00
11650;DHT22;5881;48.522;7.682;2023-05-27T14:51:52;25.40;1.00
11650;DHT22;5881;48.522;7.682;2023-05-27T14:54:17;25.30;1.00
11650;DHT22;5881;48.522;7.682;2023-05-27T14:56:43;25.50;1.00
11650;DHT22;5881;48.522;7.682;2023-05-27T14:59:09;25.50;1.00
11650;DHT22;5881;48.522;7.682;2023-05-27T15:01:34;25.60;1.00
11650;DHT22;5881;48.522;7.682;2023-05-27T15:04:00;25.30;1.00
11650;DHT22;5881;48.522;7.682;2023-05-27T15:06:26;25.40;1.00
11650;DHT22;5881;48.522;7.682;2023-05-27T15:08:51;25.50;1.00
11650;DHT22;5881;48.522;7.682;2023-05-27T15:11:18;25.40;1.00
11650;DHT22;5881;48.522;7.682;2023-05-27T15:13:43;25.70;1.00
11650;DHT22;5881;48.522;7.682;2023-05-27T15:16:09;25.50;1.00
11650;DHT22;5881;48.522;7.682;2023-05-27T15:18:34;25.60;1.00
11650;DHT22;5881;48.522;7.682;2023-05-27T15:21:00;25.60;1.00
11650;DHT22;5881;48.522;7.682;2023-05-27T15:23:26;25.50;1.00
11650;DHT22;5881;48.522;7.682;2023-05-27T15:25:51;25.40;1.00
11650;DHT22;5881;48.522;7.682;2023-05-27T15:28:18;25.60;1.00
11650;DHT22;5881;48.522;7.682;2023-05-27T15:30:44;25.40;1.00
11650;DHT22;5881;48.522;7.682;2023-05-27T15:33:10;25.20;1.00
11650;DHT22;5881;48.522;7.682;2023-05-27T15:35:35;25.30;1.00
11650;DHT22;5881;48.522;7.682;2023-05-27T15:38:01;25.20;1.00
11650;DHT22;5881;48.522;7.682;2023-05-27T15:40:27;25.00;1.00
11650;DHT22;5881;48.522;7.682;2023-05-27T15:42:52;24.90;1.00
11650;DHT22;5881;48.522;7.682;2023-05-27T15:45:18;24.80;1.00
11650;DHT22;5881;48.522;7.682;2023-05-27T15:47:43;24.90;1.00
11650;DHT22;5881;48.522;7.682;2023-05-27T15:50:09;25.00;1.00
11650;DHT22;5881;48.522;7.682;2023-05-27T15:52:35;25.00;1.00
11650;DHT22;5881;48.522;7.682;2023-05-27T15:55:00;24.90;1.00
11650;DHT22;5881;48.522;7.682;2023-05-27T15:57:26;24.80;1.00
11650;DHT22;5881;48.522;7.682;2023-05-27T15:59:52;24.90;1.00
11650;DHT22;5881;48.522;7.682;2023-05-27T16:02:18;24.70;1.00
11650;DHT22;5881;48.522;7.682;2023-05-27T16:04:44;24.70;1.00
11650;DHT22;5881;48.522;7.682;2023-05-27T16:07:11;24.70;1.00
11650;DHT22;5881;48.522;7.682;2023-05-27T16:09:37;24.80;1.00
11650;DHT22;5881;48.522;7.682;2023-05-27T16:12:04;24.70;1.00
11650;DHT22;5881;48.522;7.682;2023-05-27T16:14:29;24.70;1.00